Terminal Aerodrome Forecast
Issued by NWS Grand Junction, CO

Home | Current Version | Previous Version | Text Only | Print | Product List | Glossary On
Versions: 1 2 3 4 5 6 7 8 9 10 11 12 13 14 15 16 17 18 19 20 21 22 23 24 25 26 27 28 29 30 31 32 33 34 35 36 37
000
FTUS45 KGJT 271125
TAFGJT
TAF
KGJT 271125Z 2712/2812 11006KT P6SM VCSH SCT070 OVC100
      TEMPO 2712/2714 VRB15G30KT 5SM -TSRA BR BKN050CB
     FM271400 11006KT P6SM -SHRA BKN070 OVC100
     FM272000 29008KT P6SM VCTS SCT060CB BKN080
     FM280200 14008KT P6SM VCSH SCT050 OVC080=

USA.gov is the U.S. government's official web portal to all federal, state and local government web resources and services.